createdAt,value
2017-11-24T00:00:39.866Z,11.99
2017-11-24T00:03:07.272Z,12.01
2017-11-24T00:05:34.667Z,12.06
2017-11-24T00:08:02.082Z,12.05
2017-11-24T00:10:29.470Z,12.06
2017-11-24T00:12:56.890Z,12.08
2017-11-24T00:15:24.295Z,12.05
2017-11-24T00:17:52.012Z,12.06
2017-11-24T00:20:19.417Z,12.06
2017-11-24T00:22:46.832Z,12.09
2017-11-24T00:25:14.234Z,12.08
2017-11-24T00:27:41.630Z,12.13
2017-11-24T00:30:09.067Z,12.16
2017-11-24T00:32:36.455Z,12.13
2017-11-24T00:35:03.872Z,12.12
2017-11-24T00:37:31.288Z,12.17
2017-11-24T00:39:58.687Z,12.20
2017-11-24T00:42:26.079Z,12.16
2017-11-24T00:44:53.527Z,12.13
2017-11-24T00:47:20.939Z,12.10
2017-11-24T00:49:48.315Z,12.13
2017-11-24T00:52:15.723Z,12.15
2017-11-24T00:54:43.135Z,12.12
2017-11-24T00:57:10.519Z,12.12
2017-11-24T00:59:37.944Z,12.08
2017-11-24T01:02:05.352Z,12.06
2017-11-24T01:04:32.755Z,12.04
2017-11-24T01:07:00.191Z,12.05
2017-11-24T01:09:27.581Z,12.04
2017-11-24T01:11:54.971Z,12.03
2017-11-24T01:14:22.393Z,11.99
2017-11-24T01:16:49.786Z,12.03
2017-11-24T01:19:17.192Z,11.99
2017-11-24T01:21:44.579Z,12.03
2017-11-24T01:24:11.976Z,12.01
2017-11-24T01:26:39.367Z,11.93
2017-11-24T01:29:06.783Z,11.97
2017-11-24T01:31:34.177Z,11.98
2017-11-24T01:34:01.572Z,11.98
2017-11-24T01:36:28.968Z,11.97
2017-11-24T01:38:56.360Z,11.99
2017-11-24T01:41:23.751Z,11.95
2017-11-24T01:43:51.179Z,11.94
2017-11-24T01:46:18.571Z,11.99
2017-11-24T01:48:45.973Z,11.92
2017-11-24T01:51:13.381Z,11.90
2017-11-24T01:53:40.784Z,11.93
2017-11-24T01:56:08.236Z,11.91
2017-11-24T01:58:35.629Z,11.88
2017-11-24T02:01:03.015Z,11.88
2017-11-24T02:03:30.413Z,11.87
2017-11-24T02:05:57.814Z,11.85
2017-11-24T02:08:25.215Z,11.86
2017-11-24T02:10:52.599Z,11.92
2017-11-24T02:13:20.013Z,11.89
2017-11-24T02:15:47.415Z,11.88
2017-11-24T02:18:14.820Z,11.90
2017-11-24T02:20:42.232Z,11.96
2017-11-24T02:23:09.628Z,11.93
2017-11-24T02:25:37.014Z,11.88
2017-11-24T02:28:04.419Z,11.88
2017-11-24T02:30:31.811Z,11.89
2017-11-24T02:32:59.209Z,11.89
2017-11-24T02:35:26.619Z,11.87
2017-11-24T02:37:54.012Z,11.91
2017-11-24T02:40:21.406Z,11.90
2017-11-24T02:42:48.813Z,11.91
2017-11-24T02:45:16.204Z,11.93
2017-11-24T02:47:43.602Z,11.90
2017-11-24T02:50:11.015Z,11.89
2017-11-24T02:52:38.401Z,11.89
2017-11-24T02:55:05.792Z,11.79
2017-11-24T02:57:33.209Z,11.80
2017-11-24T03:00:00.620Z,11.83
2017-11-24T03:02:28.008Z,11.80
2017-11-24T03:04:55.411Z,11.78
2017-11-24T03:07:22.808Z,11.69
2017-11-24T03:09:50.203Z,11.67
2017-11-24T03:12:17.600Z,11.64
2017-11-24T03:14:45.015Z,11.64
2017-11-24T03:17:12.404Z,11.62
2017-11-24T03:19:39.826Z,11.63
2017-11-24T03:22:07.228Z,11.59
2017-11-24T03:24:34.612Z,11.60
2017-11-24T03:27:02.020Z,11.62
2017-11-24T03:29:29.405Z,11.43
2017-11-24T03:31:56.812Z,11.36
2017-11-24T03:34:24.224Z,10.96
2017-11-24T03:36:51.623Z,10.75
2017-11-24T03:39:19.000Z,10.58
2017-11-24T03:41:46.414Z,10.48
2017-11-24T03:44:13.808Z,10.54
2017-11-24T03:46:41.207Z,10.59
2017-11-24T03:49:08.598Z,10.68
2017-11-24T03:51:35.988Z,10.54
2017-11-24T03:54:03.384Z,10.48
2017-11-24T03:56:30.775Z,10.15
2017-11-24T03:58:58.163Z,10.07
2017-11-24T04:01:25.566Z,10.09
2017-11-24T04:03:52.988Z,10.04
2017-11-24T04:06:20.375Z,9.90
2017-11-24T04:08:47.764Z,9.82
2017-11-24T04:11:15.171Z,9.77
2017-11-24T04:13:42.583Z,9.77
2017-11-24T04:16:09.971Z,10.02
2017-11-24T04:18:37.387Z,9.94
2017-11-24T04:21:04.768Z,9.95
2017-11-24T04:23:32.155Z,10.05
2017-11-24T04:25:59.559Z,10.22
2017-11-24T04:28:26.959Z,10.22
2017-11-24T04:30:54.359Z,10.29
2017-11-24T04:33:21.776Z,10.41
2017-11-24T04:35:49.171Z,10.48
2017-11-24T04:38:16.567Z,10.47
2017-11-24T04:40:43.972Z,10.48
2017-11-24T04:43:11.375Z,10.55
2017-11-24T04:45:38.770Z,10.46
2017-11-24T04:48:06.191Z,10.34
2017-11-24T04:50:33.589Z,10.47
2017-11-24T04:53:00.981Z,10.50
2017-11-24T04:55:28.376Z,10.56
2017-11-24T04:57:55.768Z,10.59
2017-11-24T05:00:23.159Z,10.64
2017-11-24T05:02:50.587Z,10.62
2017-11-24T05:05:17.985Z,10.64
2017-11-24T05:07:45.384Z,10.64
2017-11-24T05:10:12.804Z,10.66
2017-11-24T05:12:40.202Z,10.71
2017-11-24T05:15:07.592Z,10.76
2017-11-24T05:17:35.008Z,10.83
2017-11-24T05:20:02.400Z,10.88
2017-11-24T05:22:29.794Z,10.94
2017-11-24T05:24:57.196Z,11.03
2017-11-24T05:27:24.582Z,11.12
2017-11-24T05:29:51.984Z,11.20
2017-11-24T05:32:19.412Z,11.23
2017-11-24T05:34:46.804Z,11.32
2017-11-24T05:37:14.200Z,11.35
2017-11-24T05:39:41.607Z,11.42
2017-11-24T05:42:08.997Z,11.48
2017-11-24T05:44:36.392Z,11.53
2017-11-24T05:47:03.803Z,11.55
2017-11-24T05:49:31.206Z,11.58
2017-11-24T05:51:58.660Z,11.49
2017-11-24T05:54:26.074Z,11.15
2017-11-24T05:56:53.463Z,11.16
2017-11-24T05:59:20.889Z,11.14
2017-11-24T06:01:48.290Z,11.17
2017-11-24T06:04:15.674Z,11.16
2017-11-24T06:06:43.059Z,10.85
2017-11-24T06:09:10.464Z,10.70
2017-11-24T06:11:37.867Z,10.49
2017-11-24T06:14:05.263Z,10.33
2017-11-24T06:16:32.675Z,10.30
2017-11-24T06:19:00.072Z,10.14
2017-11-24T06:21:27.466Z,10.03
2017-11-24T06:23:54.883Z,10.03
2017-11-24T06:26:22.279Z,9.96
2017-11-24T06:28:49.659Z,9.98
2017-11-24T06:31:17.071Z,9.85
2017-11-24T06:33:44.455Z,9.79
2017-11-24T06:36:11.856Z,9.79
2017-11-24T06:38:39.251Z,9.71
2017-11-24T06:41:06.677Z,9.68
2017-11-24T06:43:34.096Z,9.70
2017-11-24T06:46:01.496Z,9.74
2017-11-24T06:48:28.902Z,9.69
2017-11-24T06:50:56.306Z,9.72
2017-11-24T06:53:23.747Z,9.80
2017-11-24T06:55:51.137Z,9.75
2017-11-24T06:58:18.524Z,9.70
2017-11-24T07:00:45.928Z,9.69
2017-11-24T07:03:13.347Z,9.84
2017-11-24T07:05:40.732Z,9.96
2017-11-24T07:08:08.155Z,10.07
2017-11-24T07:10:35.594Z,10.06
2017-11-24T07:13:02.965Z,10.13
2017-11-24T07:15:30.390Z,10.17
2017-11-24T07:17:57.888Z,10.26
2017-11-24T07:20:25.243Z,10.25
2017-11-24T07:22:52.663Z,10.27
2017-11-24T07:25:20.092Z,10.30
2017-11-24T07:27:47.511Z,10.36
2017-11-24T07:30:14.926Z,10.38
2017-11-24T07:32:42.355Z,10.29
2017-11-24T07:35:09.765Z,10.21
2017-11-24T07:37:37.199Z,10.21
2017-11-24T07:40:04.591Z,10.12
2017-11-24T07:42:32.016Z,10.15
2017-11-24T07:44:59.436Z,10.16
2017-11-24T07:47:26.828Z,10.21
2017-11-24T07:49:54.222Z,10.16
2017-11-24T07:52:21.664Z,10.17
2017-11-24T07:54:49.068Z,10.16
2017-11-24T07:57:16.455Z,10.14
2017-11-24T07:59:43.875Z,10.18
2017-11-24T08:02:11.847Z,10.23
2017-11-24T08:04:39.245Z,10.31
2017-11-24T08:07:06.639Z,10.34
2017-11-24T08:09:34.030Z,10.39
2017-11-24T08:12:01.424Z,10.28
2017-11-24T08:14:28.822Z,10.33
2017-11-24T08:16:56.226Z,10.39
2017-11-24T08:19:24.139Z,10.42
2017-11-24T08:21:51.556Z,10.46
2017-11-24T08:24:18.939Z,10.48
2017-11-24T08:26:46.331Z,10.52
2017-11-24T08:29:13.732Z,10.53
2017-11-24T08:31:41.114Z,10.55
2017-11-24T08:34:08.522Z,10.58
2017-11-24T08:36:35.925Z,10.57
2017-11-24T08:39:03.321Z,10.56
2017-11-24T08:41:30.709Z,10.59
2017-11-24T08:43:58.111Z,10.60
2017-11-24T08:46:31.192Z,10.61
2017-11-24T08:49:04.082Z,10.69
2017-11-24T08:51:31.471Z,10.71
2017-11-24T08:53:58.859Z,10.73
2017-11-24T08:56:26.462Z,10.74
2017-11-24T08:58:53.856Z,10.77
2017-11-24T09:01:21.242Z,10.83
2017-11-24T09:03:48.659Z,10.72
2017-11-24T09:06:16.059Z,10.64
2017-11-24T09:08:43.442Z,10.45
2017-11-24T09:11:11.243Z,10.47
2017-11-24T09:13:38.640Z,10.55
2017-11-24T09:16:06.055Z,10.60
2017-11-24T09:18:33.488Z,10.50
2017-11-24T09:21:00.933Z,10.46
2017-11-24T09:23:28.339Z,10.45
2017-11-24T09:25:55.771Z,10.44
2017-11-24T09:28:23.162Z,10.44
2017-11-24T09:30:50.573Z,10.32
2017-11-24T09:33:18.016Z,10.37
2017-11-24T09:35:45.431Z,10.31
2017-11-24T09:38:12.828Z,10.36
2017-11-24T09:40:40.276Z,10.37
2017-11-24T09:43:07.673Z,10.32
2017-11-24T09:45:35.081Z,10.26
2017-11-24T09:48:02.519Z,10.23
2017-11-24T09:50:29.942Z,10.27
2017-11-24T09:52:57.336Z,10.15
2017-11-24T09:55:24.765Z,10.03
2017-11-24T09:57:52.200Z,9.93
2017-11-24T10:00:19.589Z,9.84
2017-11-24T10:02:46.987Z,9.82
2017-11-24T10:05:14.379Z,9.90
2017-11-24T10:07:41.767Z,9.93
2017-11-24T10:10:09.192Z,9.95
2017-11-24T10:12:36.576Z,9.97
2017-11-24T10:15:03.967Z,9.89
2017-11-24T10:17:31.378Z,9.87
2017-11-24T10:19:59.221Z,9.85
2017-11-24T10:22:32.295Z,9.77
2017-11-24T10:24:59.692Z,9.76
2017-11-24T10:27:27.094Z,9.68
2017-11-24T10:29:54.495Z,9.66
2017-11-24T10:32:21.885Z,9.71
2017-11-24T10:34:49.308Z,9.75
2017-11-24T10:37:16.688Z,9.81
2017-11-24T10:39:44.083Z,9.83
2017-11-24T10:42:12.088Z,9.81
2017-11-24T10:44:39.479Z,9.87
2017-11-24T10:47:06.917Z,9.92
2017-11-24T10:49:34.299Z,9.98
2017-11-24T10:52:01.751Z,10.08
2017-11-24T10:54:29.163Z,10.16
2017-11-24T10:56:56.551Z,10.24
2017-11-24T10:59:23.968Z,10.31
2017-11-24T11:01:51.431Z,10.28
2017-11-24T11:04:18.839Z,10.27
2017-11-24T11:06:46.248Z,10.33
2017-11-24T11:09:13.639Z,10.38
2017-11-24T11:11:41.050Z,10.44
2017-11-24T11:14:08.452Z,10.42
2017-11-24T11:16:35.899Z,10.42
2017-11-24T11:19:03.287Z,10.43
2017-11-24T11:21:30.707Z,10.31
2017-11-24T11:23:58.100Z,10.33
2017-11-24T11:26:25.544Z,10.29
2017-11-24T11:28:52.974Z,10.27
2017-11-24T11:31:20.351Z,10.31
2017-11-24T11:33:47.755Z,10.31
2017-11-24T11:36:15.175Z,10.30
2017-11-24T11:38:42.574Z,10.28
2017-11-24T11:41:09.980Z,10.20
2017-11-24T11:43:37.400Z,10.18
2017-11-24T11:46:04.799Z,10.19
2017-11-24T11:48:32.212Z,10.28
2017-11-24T11:50:59.640Z,10.29
2017-11-24T11:53:27.031Z,10.32
2017-11-24T11:55:54.450Z,10.30
2017-11-24T11:58:21.867Z,10.27
2017-11-24T12:00:49.276Z,10.27
2017-11-24T12:03:16.692Z,10.30
2017-11-24T12:05:44.103Z,10.30
2017-11-24T12:08:11.509Z,10.26
2017-11-24T12:10:38.916Z,10.34
2017-11-24T12:13:06.316Z,10.37
2017-11-24T12:15:33.728Z,10.38
2017-11-24T12:18:01.137Z,10.31
2017-11-24T12:20:28.559Z,10.23
2017-11-24T12:22:56.021Z,10.12
2017-11-24T12:25:23.399Z,10.11
2017-11-24T12:27:50.815Z,10.11
2017-11-24T12:30:18.239Z,10.08
2017-11-24T12:32:45.684Z,10.01
2017-11-24T12:35:13.100Z,10.07
2017-11-24T12:37:40.475Z,10.04
2017-11-24T12:40:07.898Z,10.01
2017-11-24T12:42:35.315Z,10.03
2017-11-24T12:45:02.736Z,9.97
2017-11-24T12:47:30.167Z,10.01
2017-11-24T12:49:57.563Z,9.97
2017-11-24T12:52:24.950Z,9.97
2017-11-24T12:54:52.329Z,9.99
2017-11-24T12:57:19.769Z,10.05
2017-11-24T12:59:47.153Z,10.05
2017-11-24T13:02:14.563Z,10.01
2017-11-24T13:04:42.009Z,10.07
2017-11-24T13:07:09.408Z,10.03
2017-11-24T13:09:36.816Z,10.08
2017-11-24T13:12:04.231Z,10.02
2017-11-24T13:14:31.629Z,9.97
2017-11-24T13:16:59.022Z,10.02
2017-11-24T13:19:26.436Z,9.98
2017-11-24T13:21:53.855Z,10.01
2017-11-24T13:24:21.244Z,10.00
2017-11-24T13:26:48.744Z,10.00
2017-11-24T13:29:16.167Z,9.93
2017-11-24T13:31:43.573Z,9.77
2017-11-24T13:34:11.007Z,9.73
2017-11-24T13:36:38.393Z,9.72
2017-11-24T13:39:05.826Z,9.77
2017-11-24T13:41:33.243Z,9.72
2017-11-24T13:44:00.710Z,9.73
2017-11-24T13:46:28.082Z,9.71
2017-11-24T13:48:55.479Z,9.73
2017-11-24T13:51:22.902Z,9.74
2017-11-24T13:53:50.319Z,9.74
2017-11-24T13:56:17.737Z,9.77
2017-11-24T13:58:45.116Z,9.81
2017-11-24T14:01:14.577Z,9.73
2017-11-24T14:03:42.973Z,9.75
2017-11-24T14:06:10.357Z,9.72
2017-11-24T14:08:40.149Z,9.69
2017-11-24T14:11:08.130Z,9.69
2017-11-24T14:13:35.524Z,9.68
2017-11-24T14:16:02.940Z,9.70
2017-11-24T14:18:30.346Z,9.73
2017-11-24T14:20:57.798Z,9.78
2017-11-24T14:23:25.236Z,9.82
2017-11-24T14:25:52.663Z,9.85
2017-11-24T14:28:20.376Z,9.86
2017-11-24T14:30:47.795Z,9.87
2017-11-24T14:33:15.191Z,9.90
2017-11-24T14:35:42.587Z,9.91
2017-11-24T14:38:10.014Z,9.91
2017-11-24T14:40:37.446Z,9.94
2017-11-24T14:43:05.491Z,9.92
2017-11-24T14:45:32.933Z,9.91
2017-11-24T14:48:00.324Z,9.93
2017-11-24T14:50:28.044Z,9.93
2017-11-24T14:52:55.698Z,9.95
2017-11-24T14:55:23.111Z,9.94
2017-11-24T14:57:51.398Z,9.91
2017-11-24T15:00:18.811Z,9.89
2017-11-24T15:02:47.147Z,9.87
2017-11-24T15:05:14.554Z,9.84
2017-11-24T15:07:41.972Z,9.84
2017-11-24T15:10:09.377Z,9.84
2017-11-24T15:12:36.792Z,9.85
2017-11-24T15:15:04.219Z,9.83
2017-11-24T15:17:31.623Z,9.83
2017-11-24T15:19:59.009Z,9.83
2017-11-24T15:22:26.440Z,9.84
2017-11-24T15:24:53.860Z,9.83
2017-11-24T15:27:21.283Z,9.83
2017-11-24T15:29:48.700Z,9.86
2017-11-24T15:32:16.131Z,9.87
2017-11-24T15:34:43.526Z,9.85
2017-11-24T15:37:10.945Z,9.86
2017-11-24T15:39:38.384Z,9.85
2017-11-24T15:42:05.803Z,9.87
2017-11-24T15:44:33.203Z,9.92
2017-11-24T15:47:00.608Z,9.90
2017-11-24T15:49:28.017Z,9.92
2017-11-24T15:51:55.418Z,9.96
2017-11-24T15:54:22.835Z,9.94
2017-11-24T15:56:50.258Z,9.91
2017-11-24T15:59:17.648Z,9.89
2017-11-24T16:01:45.065Z,9.89
2017-11-24T16:04:12.493Z,9.89
2017-11-24T16:06:39.904Z,9.87
2017-11-24T16:09:07.332Z,9.86
2017-11-24T16:11:38.500Z,9.83
2017-11-24T16:14:06.639Z,9.78
2017-11-24T16:16:34.043Z,9.72
2017-11-24T16:19:01.472Z,9.66
2017-11-24T16:21:28.891Z,9.59
2017-11-24T16:23:56.306Z,9.55
2017-11-24T16:26:23.696Z,9.51
2017-11-24T16:28:51.099Z,9.47
2017-11-24T16:31:18.504Z,9.42
2017-11-24T16:33:45.911Z,9.34
2017-11-24T16:36:13.346Z,9.29
2017-11-24T16:38:40.769Z,9.24
2017-11-24T16:41:08.207Z,9.20
2017-11-24T16:43:35.661Z,9.14
2017-11-24T16:46:03.782Z,9.10
2017-11-24T16:48:31.167Z,9.04
2017-11-24T16:50:59.347Z,8.99
2017-11-24T16:53:26.739Z,8.98
2017-11-24T16:55:54.169Z,8.93
2017-11-24T16:58:21.571Z,8.91
2017-11-24T17:00:48.979Z,8.91
2017-11-24T17:03:16.387Z,8.92
2017-11-24T17:05:43.804Z,8.91
2017-11-24T17:08:11.200Z,8.91
2017-11-24T17:10:39.924Z,8.90
2017-11-24T17:13:07.824Z,8.89
2017-11-24T17:15:35.210Z,8.81
2017-11-24T17:18:02.605Z,8.78
2017-11-24T17:20:49.369Z,8.74
2017-11-24T17:23:16.768Z,8.73
2017-11-24T17:25:44.151Z,8.71
2017-11-24T17:28:11.579Z,8.70
2017-11-24T17:30:39.638Z,8.70
2017-11-24T17:33:07.088Z,8.69
2017-11-24T17:35:34.581Z,8.73
2017-11-24T17:38:01.985Z,8.76
2017-11-24T17:40:29.697Z,8.78
2017-11-24T17:42:57.118Z,8.81
2017-11-24T17:45:24.533Z,8.84
2017-11-24T17:47:52.012Z,8.88
2017-11-24T17:50:19.736Z,8.89
2017-11-24T17:52:48.046Z,8.91
2017-11-24T17:55:15.444Z,8.89
2017-11-24T17:57:42.859Z,8.94
2017-11-24T18:00:10.260Z,8.99
2017-11-24T18:02:38.407Z,9.01
2017-11-24T18:05:05.819Z,9.03
2017-11-24T18:07:36.872Z,9.04
2017-11-24T18:10:04.269Z,9.06
2017-11-24T18:12:31.666Z,9.06
2017-11-24T18:14:59.087Z,9.06
2017-11-24T18:17:33.115Z,9.12
2017-11-24T18:20:00.501Z,9.17
2017-11-24T18:22:27.918Z,9.17
2017-11-24T18:24:55.331Z,9.12
2017-11-24T18:27:23.523Z,9.11
2017-11-24T18:29:50.933Z,9.13
2017-11-24T18:32:18.326Z,9.13
2017-11-24T18:34:45.736Z,9.15
2017-11-24T18:37:13.128Z,9.14
2017-11-24T18:39:40.536Z,9.14
2017-11-24T18:42:07.942Z,9.14
2017-11-24T18:44:35.315Z,9.13
2017-11-24T18:47:02.723Z,9.14
2017-11-24T18:49:30.123Z,9.14
2017-11-24T18:51:57.506Z,9.15
2017-11-24T18:54:24.928Z,9.15
2017-11-24T18:56:52.319Z,9.11
2017-11-24T18:59:19.752Z,9.11
2017-11-24T19:01:47.191Z,9.10
2017-11-24T19:04:14.590Z,9.06
2017-11-24T19:06:42.812Z,9.04
2017-11-24T19:09:10.208Z,9.03
2017-11-24T19:11:37.596Z,9.01
2017-11-24T19:14:04.991Z,8.99
2017-11-24T19:16:32.390Z,8.98
2017-11-24T19:19:00.006Z,8.97
2017-11-24T19:21:28.387Z,8.91
2017-11-24T19:23:56.275Z,8.85
2017-11-24T19:26:23.686Z,8.84
2017-11-24T19:28:51.089Z,8.78
2017-11-24T19:31:18.495Z,8.73
2017-11-24T19:33:45.897Z,8.62
2017-11-24T19:36:13.288Z,8.59
2017-11-24T19:38:40.727Z,8.60
2017-11-24T19:41:08.103Z,8.59
2017-11-24T19:43:35.545Z,8.55
2017-11-24T19:46:02.957Z,8.53
2017-11-24T19:48:30.344Z,8.49
2017-11-24T19:50:57.742Z,8.49
2017-11-24T19:53:25.149Z,8.47
2017-11-24T19:55:52.540Z,8.46
2017-11-24T19:58:19.942Z,8.48
2017-11-24T20:00:47.375Z,8.50
2017-11-24T20:03:14.768Z,8.52
2017-11-24T20:05:42.167Z,8.54
2017-11-24T20:08:09.603Z,8.55
2017-11-24T20:10:36.995Z,8.56
2017-11-24T20:13:04.383Z,8.57
2017-11-24T20:15:31.833Z,8.58
2017-11-24T20:17:59.239Z,8.53
2017-11-24T20:20:26.696Z,8.49
2017-11-24T20:22:54.096Z,8.43
2017-11-24T20:25:21.495Z,8.40
2017-11-24T20:27:48.904Z,8.43
2017-11-24T20:30:16.305Z,8.40
2017-11-24T20:32:43.695Z,8.40
2017-11-24T20:35:11.109Z,8.50
2017-11-24T20:37:38.517Z,8.53
2017-11-24T20:40:05.907Z,8.54
2017-11-24T20:42:33.319Z,8.53
2017-11-24T20:45:00.721Z,8.52
2017-11-24T20:47:28.108Z,8.50
2017-11-24T20:49:55.503Z,8.50
2017-11-24T20:52:22.922Z,8.49
2017-11-24T20:54:50.328Z,8.49
2017-11-24T20:57:17.712Z,8.48
2017-11-24T20:59:45.159Z,8.54
2017-11-24T21:02:12.563Z,8.59
2017-11-24T21:04:39.947Z,8.61
2017-11-24T21:07:07.354Z,8.59
2017-11-24T21:09:34.754Z,8.54
2017-11-24T21:12:02.146Z,8.48
2017-11-24T21:14:29.557Z,8.48
2017-11-24T21:16:56.939Z,8.48
2017-11-24T21:19:24.325Z,8.46
2017-11-24T21:21:51.720Z,8.46
2017-11-24T21:24:19.108Z,8.41
2017-11-24T21:26:46.488Z,8.36
2017-11-24T21:29:13.886Z,8.32
2017-11-24T21:31:41.284Z,8.30
2017-11-24T21:34:08.712Z,8.28
2017-11-24T21:36:36.113Z,8.25
2017-11-24T21:39:03.500Z,8.24
2017-11-24T21:41:30.898Z,8.21
2017-11-24T21:43:58.319Z,8.21
2017-11-24T21:46:25.711Z,8.23
2017-11-24T21:48:53.127Z,8.24
2017-11-24T21:51:20.550Z,8.26
2017-11-24T21:53:47.951Z,8.28
2017-11-24T21:56:15.377Z,8.25
2017-11-24T21:58:42.815Z,8.20
2017-11-24T22:01:10.221Z,8.20
2017-11-24T22:03:37.612Z,8.15
2017-11-24T22:06:05.008Z,8.07
2017-11-24T22:08:32.422Z,7.98
2017-11-24T22:10:59.807Z,7.98
2017-11-24T22:13:27.225Z,8.06
2017-11-24T22:15:54.601Z,8.10
2017-11-24T22:18:21.988Z,8.11
2017-11-24T22:20:49.433Z,8.14
2017-11-24T22:23:16.815Z,8.17
2017-11-24T22:25:44.199Z,8.14
2017-11-24T22:28:11.614Z,8.10
2017-11-24T22:30:39.013Z,8.12
2017-11-24T22:33:06.405Z,8.16
2017-11-24T22:35:33.815Z,8.14
2017-11-24T22:38:01.215Z,8.17
2017-11-24T22:40:28.595Z,8.23
2017-11-24T22:42:56.028Z,8.23
2017-11-24T22:45:23.410Z,8.16
2017-11-24T22:47:50.834Z,8.21
2017-11-24T22:50:18.243Z,8.13
2017-11-24T22:52:45.630Z,8.01
2017-11-24T22:55:13.053Z,7.87
2017-11-24T22:57:40.475Z,7.95
2017-11-24T23:00:07.890Z,7.93
2017-11-24T23:02:35.304Z,7.87
2017-11-24T23:05:02.711Z,7.79
2017-11-24T23:07:30.101Z,7.80
2017-11-24T23:09:57.491Z,7.83
2017-11-24T23:12:24.889Z,7.94
2017-11-24T23:14:52.292Z,7.81
2017-11-24T23:17:19.679Z,7.73
2017-11-24T23:19:47.100Z,7.76
2017-11-24T23:22:14.484Z,7.70
2017-11-24T23:24:41.883Z,7.75
2017-11-24T23:27:09.300Z,7.75
2017-11-24T23:29:36.689Z,7.82
2017-11-24T23:32:04.100Z,7.97
2017-11-24T23:34:31.525Z,7.95
2017-11-24T23:36:58.908Z,7.86
2017-11-24T23:39:26.303Z,7.78
2017-11-24T23:41:53.723Z,7.81
2017-11-24T23:44:21.107Z,7.84
2017-11-24T23:46:48.519Z,7.84
2017-11-24T23:49:15.920Z,7.85
2017-11-24T23:51:43.319Z,7.87
2017-11-24T23:54:10.744Z,7.83
2017-11-24T23:56:38.163Z,7.88
2017-11-24T23:59:05.576Z,7.92
